Axtell, Utah
Current Conditions -  °F | °C
As of 3:35 PM on Wednesday 22 Oct 2014 (Local Time) from KDTA Reporting Station
Clear Clear  
Wind Chill: 17°   Ceiling: Unl
Heat Index: 17°   Visibility: 10mi
Dew Point: -2°   Wind: 3mph
Humidity: 27%   Direction: 270°W
Pressure: 30.16"   Gusts: NA
Location:  39.06°N, 111.82°W
Report Text: KDTA 222135Z AUTO 27003KT 10SM CLR 17/M02 A3016 RMK AO1 T01731022
Loading
Personal Weather Stations






























Interactive Weather Map
Tropical Storm Tracking
New forecast layout! Learn more

10-Day Weather Forecast

Advertisements
Track Severe Weather on mobile